Flight Track Log - Related Links

Times and Time Zones

All times are in EDT time to prevent confusion due to time zone crossing. See the AIE846 flight status page for this flight to view local times or setup timezone preferences in your user account.

Time Position Orientation Groundspeed Altitude Reporting Facility
EDT Latitude Longitude Course Direction KTS MPH feet Rate Location/Type
Tue 09:36:13 AM 49.7500 -74.5667 69° East 120 138 3,400  Level Montreal Center
Tue 09:37:13 AM 49.7667 -74.5000 69° East 160 184 4,400 1,050 Climbing Montreal Center
Tue 09:38:13 AM 49.8000 -74.4500 44° Northeast 190 219 5,500 1,050 Climbing Montreal Center
Tue 09:39:13 AM 49.8333 -74.3833 52° Northeast 190 219 6,500 1,000 Climbing Montreal Center
Tue 09:40:13 AM 49.8667 -74.3167 52° Northeast 200 230 7,500 1,050 Climbing Montreal Center
Tue 09:41:13 AM 49.9000 -74.2500 52° Northeast 200 230 8,600 1,050 Climbing Montreal Center
Tue 09:42:13 AM 49.9333 -74.1667 58° Northeast 200 230 9,600 1,000 Climbing Montreal Center
Tue 09:43:13 AM 49.9667 -74.0833 58° Northeast 210 242 10,600 900 Climbing Montreal Center
Tue 09:44:13 AM 49.9833 -74.0333 63° Northeast 210 242 11,400 900 Climbing Montreal Center
Tue 09:45:13 AM 50.0333 -73.9500 47° Northeast 200 230 12,400 800 Climbing Montreal Center
Tue 09:46:13 AM 50.0500 -73.8667 73° East 200 230 13,000 700 Climbing Montreal Center
Tue 09:47:13 AM 50.1000 -73.8167 33° Northeast 200 230 13,800 750 Climbing Montreal Center
Tue 09:48:13 AM 50.1333 -73.7333 58° Northeast 210 242 14,500 700 Climbing Montreal Center
Tue 09:49:13 AM 50.1667 -73.6500 58° Northeast 210 242 15,200 700 Climbing Montreal Center
Tue 09:50:13 AM 50.2000 -73.5667 58° Northeast 210 242 15,900 550 Climbing Montreal Center
Tue 09:51:13 AM 50.2333 -73.5167 44° Northeast 220 253 16,300 450 Climbing Montreal Center
Tue 09:52:13 AM 50.2667 -73.4333 58° Northeast 220 253 16,800 500 Climbing Montreal Center
Tue 09:53:13 AM 50.3000 -73.3500 58° Northeast 220 253 17,300 450 Climbing Montreal Center
Tue 09:54:13 AM 50.3500 -73.2833 40° Northeast 220 253 17,700 450 Climbing Montreal Center
Tue 09:55:13 AM 50.3833 -73.2000 58° Northeast 220 253 18,200 450 Climbing Montreal Center
Tue 09:56:13 AM 50.4167 -73.1167 58° Northeast 220 253 18,600 400 Climbing Montreal Center
Tue 09:57:13 AM 50.4333 -73.0333 73° East 220 253 19,000 450 Climbing Montreal Center
Tue 09:58:13 AM 50.4833 -72.9500 47° Northeast 220 253 19,500 450 Climbing Montreal Center
Tue 09:59:13 AM 50.5167 -72.8667 58° Northeast 220 253 19,900 500 Climbing Montreal Center
Tue 10:00:13 AM 50.5500 -72.8167 44° Northeast 220 253 20,500 500 Climbing Montreal Center
Tue 10:01:13 AM 50.5833 -72.7333 58° Northeast 210 242 20,900 400 Climbing Montreal Center
Tue 10:02:13 AM 50.6167 -72.6500 58° Northeast 210 242 21,300 450 Climbing Montreal Center
Tue 10:03:13 AM 50.6500 -72.5667 58° Northeast 210 242 21,800 450 Climbing Montreal Center
Tue 10:04:13 AM 50.6833 -72.4833 58° Northeast 210 242 22,200 400 Climbing Montreal Center
Tue 10:05:13 AM 50.7333 -72.4333 32° Northeast 200 230 22,600 350 Climbing Montreal Center
Tue 10:06:13 AM 50.7500 -72.3500 72° East 210 242 22,900 350 Climbing Montreal Center
Tue 10:07:13 AM 50.7833 -72.2667 58° Northeast 200 230 23,300 350 Climbing Montreal Center
Tue 10:08:13 AM 50.8167 -72.2167 43° Northeast 200 230 23,600 300 Climbing Montreal Center
Tue 10:09:13 AM 50.8500 -72.1333 58° Northeast 200 230 23,900 400 Climbing Montreal Center
Tue 10:10:13 AM 50.8833 -72.0500 58° Northeast 200 230 24,400 400 Climbing Montreal Center
Tue 10:11:13 AM 50.9167 -71.9833 52° Northeast 190 219 24,700 300 Climbing Montreal Center
Tue 10:12:13 AM 50.9500 -71.9000 58° Northeast 190 219 25,000 150 Climbing Montreal Center
Tue 10:13:13 AM 50.9833 -71.8500 43° Northeast 200 230 25,000  Level Montreal Center
Tue 10:14:13 AM 51.0000 -71.7667 72° East 210 242 25,000  Level Montreal Center
Tue 10:15:13 AM 51.0333 -71.6833 58° Northeast 210 242 25,000  Level Montreal Center
Tue 10:16:13 AM 51.0667 -71.6000 57° Northeast 220 253 25,000  Level Montreal Center
Tue 10:17:13 AM 51.1000 -71.5167 57° Northeast 220 253 25,000  Level Montreal Center
Tue 10:18:13 AM 51.1500 -71.4333 46° Northeast 220 253 25,000  Level Montreal Center
Tue 10:19:13 AM 51.1833 -71.3500 57° Northeast 220 253 25,000  Level Montreal Center
Tue 10:20:13 AM 51.2000 -71.2667 72° East 230 265 25,000  Level Montreal Center
Tue 10:22:13 AM 51.2833 -71.1167 48° Northeast 230 265 25,000  Level Montreal Center
Tue 10:23:13 AM 51.3167 -71.0000 65° Northeast 230 265 25,000  Level Montreal Center
Tue 10:24:13 AM 51.3667 -70.9167 46° Northeast 230 265 25,000  Level Montreal Center
Tue 10:25:13 AM 51.3833 -70.8333 72° East 230 265 25,000  Level Montreal Center
Tue 10:26:13 AM 51.4167 -70.7500 57° Northeast 230 265 25,000  Level Montreal Center
Tue 10:27:13 AM 51.4667 -70.6667 46° Northeast 230 265 25,000  Level Montreal Center
Tue 10:28:13 AM 51.5000 -70.5833 57° Northeast 230 265 25,000  Level Montreal Center
Tue 10:29:13 AM 51.5333 -70.5000 57° Northeast 230 265 25,000  Level Montreal Center
Tue 10:30:13 AM 51.5667 -70.4167 57° Northeast 230 265 25,000  Level Montreal Center
Tue 10:31:13 AM 51.6000 -70.3167 62° Northeast 230 265 25,000  Level Montreal Center
Tue 10:32:13 AM 51.6333 -70.2333 57° Northeast 230 265 25,000  Level Montreal Center
Tue 10:33:13 AM 51.6833 -70.1500 46° Northeast 230 265 25,000  Level Montreal Center
Tue 10:34:13 AM 51.7000 -70.0667 72° East 240 276 25,000  Level Montreal Center
Tue 10:35:13 AM 51.7333 -69.9833 57° Northeast 240 276 25,000  Level Montreal Center
Tue 10:36:13 AM 51.7833 -69.9000 46° Northeast 230 265 25,000  Level Montreal Center
Tue 10:37:13 AM 51.8167 -69.8000 62° Northeast 240 276 25,000  Level Montreal Center
Tue 10:38:13 AM 51.8667 -69.7167 46° Northeast 240 276 25,000  Level Montreal Center
Tue 10:39:13 AM 51.8833 -69.6333 72° East 230 265 25,000  Level Montreal Center
Tue 10:40:13 AM 51.9333 -69.5167 55° Northeast 240 276 25,000  Level Montreal Center
Tue 10:41:13 AM 51.9667 -69.4333 57° Northeast 230 265 25,000  Level Montreal Center
Tue 10:42:13 AM 52.0000 -69.3333 62° Northeast 240 276 25,000  Level Montreal Center
Tue 10:43:13 AM 52.0333 -69.2500 57° Northeast 240 276 25,000  Level Montreal Center
Tue 10:44:13 AM 52.0667 -69.1667 57° Northeast 230 265 25,000  Level Montreal Center
Tue 10:45:13 AM 52.1167 -69.0833 46° Northeast 220 253 25,000  Level Montreal Center
Tue 10:46:13 AM 52.1333 -68.9833 75° East 220 253 25,000  Level Montreal Center
Tue 10:47:13 AM 52.1667 -68.9333 43° Northeast 210 242 25,000  Level Montreal Center
Tue 10:48:13 AM 52.2000 -68.8500 57° Northeast 190 219 25,000  Level Montreal Center
Tue 10:49:13 AM 52.2333 -68.7500 61° Northeast 200 230 25,000  Level Montreal Center
Tue 10:50:13 AM 52.2500 -68.7000 61° Northeast 200 230 25,000  Level Montreal Center
Tue 10:51:13 AM 52.2833 -68.6333 51° Northeast 170 196 25,000  Level Montreal Center
Tue 10:52:13 AM 52.3167 -68.5500 57° Northeast 190 219 25,000  Level Montreal Center
Tue 10:53:13 AM 52.3500 -68.4833 51° Northeast 190 219 25,000  Level Montreal Center
Tue 10:54:13 AM 52.3667 -68.4000 72° East 190 219 25,000  Level Montreal Center
Tue 10:55:13 AM 52.4000 -68.3167 57° Northeast 190 219 25,000  Level Montreal Center
Tue 10:56:13 AM 52.4333 -68.2500 51° Northeast 190 219 25,000  Level Montreal Center
Tue 10:57:13 AM 52.4667 -68.1833 51° Northeast 190 219 25,000  Level Montreal Center
Tue 10:58:13 AM 52.4833 -68.1000 72° East 190 219 25,000  Level Montreal Center
Tue 10:59:13 AM 52.5167 -68.0167 57° Northeast 210 242 25,000 -750 Level Montreal Center
Tue 11:00:13 AM 52.5500 -67.9167 61° Northeast 230 265 23,500 -1,800 Descending Montreal Center
Tue 11:01:13 AM 52.5833 -67.8000 65° Northeast 290 334 21,400 -2,200 Descending Montreal Center
Tue 11:02:13 AM 52.6333 -67.6833 55° Northeast 320 368 19,100 -2,050 Descending Montreal Center
Tue 11:03:13 AM 52.6833 -67.5667 55° Northeast 290 334 17,300 -1,100 Descending Montreal Center
Tue 11:04:13 AM 52.7167 -67.4667 61° Northeast 250 288 16,900 -1,100 Descending Montreal Center
Tue 11:05:13 AM 52.7500 -67.3833 57° Northeast 250 288 15,100 -1,200 Descending Montreal Center
Tue 11:06:13 AM 52.7833 -67.2667 65° Northeast 260 299 14,500 -950 Descending Montreal Center
Tue 11:07:13 AM 52.8333 -67.1667 50° Northeast 270 311 13,200 -1,300 Descending Montreal Center
Tue 11:09:00 AM 52.8955 -67.0197 56° Northeast  Level FlightAware Approximate
Tue 11:16:00 AM 52.9167 -66.8500 180° South  Level FlightAware Approximate
Tue 11:17:00 AM 52.9219 -66.8644 180° South  Level Estimated
Tue 11:18:00 AM 52.9219 -66.8644 180° South  Level Estimated
Tue 11:19:00 AM 52.9219 -66.8644 180° South  Level Estimated
Tue 11:20:00 AM 52.9219 -66.8644 180° South  Level Estimated
Tue 11:21:00 AM 52.9219 -66.8644 180° South  Level Estimated
Tue 11:22:00 AM 52.9219 -66.8644 180° South  Level Estimated
Tue 11:23:00 AM 52.9219 -66.8644 180° South  Level Estimated
Tue 11:24:00 AM 52.9219 -66.8644 180° South  Level Estimated
Tue 11:25:00 AM 52.9219 -66.8644 180° South  Level Estimated
Tue 11:26:00 AM 52.9219 -66.8644 180° South  Level Estimated
Tue 11:27:00 AM 52.9219 -66.8644 180° South  Level Estimated
Tue 11:28:00 AM 52.9219 -66.8644 180° South  Level Estimated

Login

Don't have an account? Register now (free) for customized features, flight alerts, and more!